Sarben, Nebraska
Current Conditions -  °F | °C
As of 8:55 AM on Wednesday 28 Jan 2015 (Local Time) from KOGA Reporting Station
Clear Clear  
Wind Chill: 54°   Ceiling: Unl
Heat Index: 54°   Visibility: 10mi
Dew Point: 35°   Wind: 33mph
Humidity: 48%   Direction: 310°NW
Pressure: 29.88"   Gusts: 45mph
Location:  41.2105°N, 101.376°W
Report Text: KOGA 281555Z AUTO 31029G39KT 10SM CLR 12/02 A2988 RMK AO2 T01230015
Loading
Personal Weather Stations






























Interactive Weather Map New forecast layout! Learn more

10-Day Weather Forecast

Advertisements
Track Severe Weather on mobile